createdAt,value
2023-10-01T00:00:04.376Z,4.00
2023-10-01T00:01:04.509Z,4.30
2023-10-01T00:02:04.483Z,3.50
2023-10-01T00:03:04.337Z,3.70
2023-10-01T00:04:04.400Z,4.00
2023-10-01T00:05:04.313Z,4.40
2023-10-01T00:06:04.298Z,3.80
2023-10-01T00:07:04.311Z,4.30
2023-10-01T00:08:04.296Z,4.10
2023-10-01T00:09:04.266Z,4.70
2023-10-01T00:10:04.330Z,4.20
2023-10-01T00:11:04.276Z,3.70
2023-10-01T00:12:04.231Z,3.50
2023-10-01T00:13:04.290Z,4.10
2023-10-01T00:14:06.362Z,4.40
2023-10-01T00:15:04.205Z,4.30
2023-10-01T00:16:04.244Z,4.10
2023-10-01T00:17:04.217Z,4.40
2023-10-01T00:18:04.193Z,4.30
2023-10-01T00:19:04.224Z,4.80
2023-10-01T00:20:04.144Z,4.20
2023-10-01T00:21:04.153Z,3.90
2023-10-01T00:22:04.161Z,3.60
2023-10-01T00:23:04.782Z,4.10
2023-10-01T00:24:04.113Z,4.20
2023-10-01T00:25:04.160Z,4.30
2023-10-01T00:26:04.207Z,3.90
2023-10-01T00:27:04.063Z,3.80
2023-10-01T00:28:04.091Z,4.30
2023-10-01T00:29:04.056Z,4.40
2023-10-01T00:30:04.041Z,4.00
2023-10-01T00:31:04.071Z,3.70
2023-10-01T00:32:04.051Z,4.30
2023-10-01T00:33:04.115Z,4.30
2023-10-01T00:34:04.052Z,4.20
2023-10-01T00:35:03.979Z,4.10
2023-10-01T00:36:03.972Z,3.90
2023-10-01T00:37:04.032Z,4.10
2023-10-01T00:38:03.952Z,3.80
2023-10-01T00:39:03.980Z,3.50
2023-10-01T00:40:03.983Z,4.10
2023-10-01T00:41:03.914Z,4.00
2023-10-01T00:42:03.945Z,3.70
2023-10-01T00:43:03.934Z,3.80
2023-10-01T00:44:03.907Z,4.20
2023-10-01T00:45:03.869Z,3.60
2023-10-01T00:46:03.951Z,4.10
2023-10-01T00:47:03.850Z,4.00
2023-10-01T00:48:03.879Z,4.30
2023-10-01T00:49:03.877Z,3.70
2023-10-01T00:50:03.839Z,4.10
2023-10-01T00:51:03.809Z,4.10
2023-10-01T00:52:03.846Z,3.50
2023-10-01T00:53:03.787Z,4.50
2023-10-01T00:54:03.807Z,3.90
2023-10-01T00:55:03.789Z,4.00
2023-10-01T00:56:03.781Z,3.50
2023-10-01T00:57:03.741Z,3.90
2023-10-01T00:58:03.838Z,3.90
2023-10-01T00:59:03.723Z,4.00
2023-10-01T01:00:03.718Z,4.00
2023-10-01T01:01:03.776Z,4.20
2023-10-01T01:02:03.733Z,3.90
2023-10-01T01:03:03.717Z,4.00
2023-10-01T01:04:03.755Z,4.00
2023-10-01T01:05:03.649Z,3.80
2023-10-01T01:06:03.658Z,4.00
2023-10-01T01:07:03.666Z,4.20
2023-10-01T01:08:03.622Z,3.90
2023-10-01T01:09:03.600Z,3.50
2023-10-01T01:10:03.598Z,4.00
2023-10-01T01:11:03.593Z,4.10
2023-10-01T01:12:03.592Z,3.90
2023-10-01T01:13:03.618Z,3.60
2023-10-01T01:14:03.540Z,3.60
2023-10-01T01:15:03.527Z,4.00
2023-10-01T01:16:03.614Z,4.10
2023-10-01T01:17:03.566Z,3.90
2023-10-01T01:18:03.531Z,3.70
2023-10-01T01:19:03.509Z,3.80
2023-10-01T01:20:03.477Z,3.60
2023-10-01T01:21:03.460Z,3.90
2023-10-01T01:22:03.496Z,3.90
2023-10-01T01:23:03.438Z,3.80
2023-10-01T01:24:03.431Z,3.60
2023-10-01T01:25:03.456Z,3.70
2023-10-01T01:26:03.412Z,3.90
2023-10-01T01:27:03.390Z,3.60
2023-10-01T01:28:03.473Z,4.00
2023-10-01T01:29:03.384Z,3.60
2023-10-01T01:30:03.367Z,3.90
2023-10-01T01:31:03.784Z,3.80
2023-10-01T01:32:03.395Z,3.80
2023-10-01T01:33:03.384Z,3.70
2023-10-01T01:34:03.364Z,3.50
2023-10-01T01:35:03.303Z,3.60
2023-10-01T01:36:03.300Z,3.40
2023-10-01T01:37:03.322Z,3.70
2023-10-01T01:38:03.281Z,3.50
2023-10-01T01:39:03.303Z,4.00
2023-10-01T01:40:03.294Z,3.90
2023-10-01T01:41:03.233Z,3.40
2023-10-01T01:42:03.226Z,3.60
2023-10-01T01:43:03.234Z,4.00
2023-10-01T01:44:03.211Z,3.80
2023-10-01T01:45:03.216Z,4.00
2023-10-01T01:46:03.251Z,3.80
2023-10-01T01:47:03.224Z,3.90
2023-10-01T01:48:03.178Z,3.50
2023-10-01T01:49:03.201Z,3.60
2023-10-01T01:50:03.146Z,3.70
2023-10-01T01:51:03.157Z,3.40
2023-10-01T01:52:03.122Z,4.40
2023-10-01T01:53:03.100Z,3.60
2023-10-01T01:54:03.089Z,3.50
2023-10-01T01:55:03.107Z,3.40
2023-10-01T01:56:03.087Z,3.70
2023-10-01T01:57:03.090Z,3.70
2023-10-01T01:58:03.064Z,3.60
2023-10-01T01:59:03.036Z,3.70
2023-10-01T02:00:03.049Z,3.50
2023-10-01T02:01:03.189Z,3.70
2023-10-01T02:02:03.268Z,3.40
2023-10-01T02:03:03.063Z,3.40
2023-10-01T02:04:03.024Z,3.40
2023-10-01T02:05:02.992Z,3.50
2023-10-01T02:06:02.960Z,4.20
2023-10-01T02:07:02.964Z,3.70
2023-10-01T02:08:02.974Z,3.40
2023-10-01T02:09:03.048Z,4.10
2023-10-01T02:10:02.934Z,4.00
2023-10-01T02:11:02.899Z,3.60
2023-10-01T02:12:02.907Z,3.60
2023-10-01T02:13:02.893Z,3.60
2023-10-01T02:14:02.906Z,3.60
2023-10-01T02:15:02.865Z,3.30
2023-10-01T02:16:02.859Z,3.40
2023-10-01T02:17:02.925Z,3.50
2023-10-01T02:18:02.869Z,3.20
2023-10-01T02:19:03.171Z,4.00
2023-10-01T02:20:02.831Z,3.70
2023-10-01T02:21:02.795Z,3.30
2023-10-01T02:22:02.817Z,3.40
2023-10-01T02:23:02.771Z,3.80
2023-10-01T02:24:02.763Z,3.80
2023-10-01T02:25:02.779Z,3.60
2023-10-01T02:26:02.777Z,3.30
2023-10-01T02:27:02.726Z,3.60
2023-10-01T02:28:02.789Z,3.90
2023-10-01T02:29:02.704Z,3.80
2023-10-01T02:30:02.691Z,3.00
2023-10-01T02:31:02.715Z,3.50
2023-10-01T02:32:02.744Z,3.60
2023-10-01T02:33:02.682Z,4.20
2023-10-01T02:34:02.676Z,3.00
2023-10-01T02:35:02.632Z,4.00
2023-10-01T02:36:02.625Z,3.80
2023-10-01T02:37:02.675Z,3.50
2023-10-01T02:38:02.647Z,3.40
2023-10-01T02:39:02.589Z,3.40
2023-10-01T02:40:02.632Z,3.80
2023-10-01T02:41:04.919Z,3.80
2023-10-01T02:42:02.559Z,3.40
2023-10-01T02:43:02.573Z,3.60
2023-10-01T02:44:02.555Z,3.80
2023-10-01T02:45:02.529Z,3.60
2023-10-01T02:46:02.562Z,3.70
2023-10-01T02:47:02.581Z,3.70
2023-10-01T02:48:02.524Z,3.60
2023-10-01T02:49:02.782Z,3.50
2023-10-01T02:50:02.474Z,3.90
2023-10-01T02:51:02.468Z,3.90
2023-10-01T02:52:02.470Z,3.40
2023-10-01T02:53:02.442Z,4.00
2023-10-01T02:54:02.507Z,3.70
2023-10-01T02:55:02.481Z,3.50
2023-10-01T02:56:02.420Z,4.00
2023-10-01T02:57:02.397Z,3.80
2023-10-01T02:58:02.418Z,3.30
2023-10-01T02:59:02.375Z,3.50
2023-10-01T03:00:02.382Z,3.80
2023-10-01T03:01:02.422Z,3.90
2023-10-01T03:02:02.339Z,3.30
2023-10-01T03:03:02.504Z,3.50
2023-10-01T03:04:02.418Z,3.50
2023-10-01T03:05:02.323Z,3.70
2023-10-01T03:06:02.296Z,3.70
2023-10-01T03:07:02.327Z,3.60
2023-10-01T03:08:02.276Z,3.20
2023-10-01T03:09:02.512Z,3.90
2023-10-01T03:10:02.298Z,3.70
2023-10-01T03:11:02.295Z,3.70
2023-10-01T03:12:02.231Z,3.60
2023-10-01T03:13:02.271Z,3.30
2023-10-01T03:14:02.230Z,3.70
2023-10-01T03:15:02.588Z,3.30
2023-10-01T03:16:02.222Z,3.20
2023-10-01T03:17:02.195Z,3.40
2023-10-01T03:18:02.213Z,3.80
2023-10-01T03:19:02.330Z,3.80
2023-10-01T03:20:02.138Z,3.60
2023-10-01T03:21:02.123Z,3.80
2023-10-01T03:22:02.130Z,3.60
2023-10-01T03:23:02.113Z,4.40
2023-10-01T03:24:02.131Z,4.00
2023-10-01T03:25:02.130Z,3.60
2023-10-01T03:26:02.347Z,3.50
2023-10-01T03:27:02.058Z,3.20
2023-10-01T03:28:02.072Z,3.40
2023-10-01T03:29:02.221Z,3.70
2023-10-01T03:30:02.541Z,3.50
2023-10-01T03:31:02.146Z,3.60
2023-10-01T03:32:02.001Z,3.20
2023-10-01T03:33:02.009Z,3.50
2023-10-01T03:34:02.014Z,3.20
2023-10-01T03:35:01.964Z,3.10
2023-10-01T03:36:01.978Z,3.50
2023-10-01T03:37:02.061Z,3.80
2023-10-01T03:38:01.958Z,3.60
2023-10-01T03:39:02.205Z,4.00
2023-10-01T03:40:01.972Z,3.50
2023-10-01T03:41:01.898Z,3.40
2023-10-01T03:42:01.910Z,3.30
2023-10-01T03:43:01.902Z,4.00
2023-10-01T03:44:01.861Z,3.90
2023-10-01T03:45:01.852Z,3.50
2023-10-01T03:46:01.866Z,3.40
2023-10-01T03:48:01.878Z,3.70
2023-10-01T03:49:02.497Z,3.00
2023-10-01T03:50:01.802Z,3.30
2023-10-01T03:51:01.813Z,3.80
2023-10-01T03:52:01.828Z,3.40
2023-10-01T03:53:01.761Z,3.40
2023-10-01T03:54:01.755Z,3.40
2023-10-01T03:55:01.929Z,3.40
2023-10-01T03:56:01.757Z,3.60
2023-10-01T03:57:01.719Z,3.10
2023-10-01T03:58:01.813Z,3.70
2023-10-01T03:59:01.844Z,3.40
2023-10-01T04:00:01.689Z,3.10
2023-10-01T04:01:01.723Z,3.40
2023-10-01T04:02:01.740Z,3.30
2023-10-01T04:03:01.724Z,3.60
2023-10-01T04:04:01.773Z,3.20
2023-10-01T04:05:01.662Z,3.40
2023-10-01T04:06:01.615Z,3.80
2023-10-01T04:07:01.755Z,3.30
2023-10-01T04:08:01.605Z,3.40
2023-10-01T04:09:01.637Z,3.40
2023-10-01T04:10:01.601Z,3.20
2023-10-01T04:11:01.569Z,3.40
2023-10-01T04:12:01.570Z,3.00
2023-10-01T04:13:01.560Z,3.30
2023-10-01T04:14:01.540Z,3.30
2023-10-01T04:15:01.676Z,3.70
2023-10-01T04:16:01.653Z,3.00
2023-10-01T04:17:01.600Z,3.20
2023-10-01T04:18:01.613Z,3.40
2023-10-01T04:19:01.910Z,3.30
2023-10-01T04:20:01.684Z,3.70
2023-10-01T04:21:01.633Z,2.80
2023-10-01T04:22:01.632Z,3.30
2023-10-01T04:23:01.546Z,3.40
2023-10-01T04:24:01.424Z,3.50
2023-10-01T04:25:01.419Z,3.60
2023-10-01T04:26:01.401Z,3.20
2023-10-01T04:27:01.410Z,3.60
2023-10-01T04:28:01.475Z,3.70
2023-10-01T04:29:01.598Z,3.30
2023-10-01T04:30:01.410Z,3.30
2023-10-01T04:31:01.465Z,3.70
2023-10-01T04:32:01.326Z,3.40
2023-10-01T04:33:01.360Z,2.80
2023-10-01T04:34:01.366Z,3.50
2023-10-01T04:35:01.297Z,3.50
2023-10-01T04:36:01.282Z,3.30
2023-10-01T04:37:01.345Z,3.60
2023-10-01T04:38:01.261Z,3.30
2023-10-01T04:39:01.572Z,2.70
2023-10-01T04:40:01.284Z,3.20
2023-10-01T04:41:01.231Z,3.40
2023-10-01T04:42:01.361Z,3.00
2023-10-01T04:43:01.263Z,3.70
2023-10-01T04:44:01.194Z,3.50
2023-10-01T04:45:01.179Z,3.10
2023-10-01T04:46:01.247Z,3.30
2023-10-01T04:47:01.210Z,3.10
2023-10-01T04:48:01.204Z,3.10
2023-10-01T04:49:01.306Z,2.90
2023-10-01T04:50:01.143Z,3.30
2023-10-01T04:51:01.129Z,2.70
2023-10-01T04:52:01.125Z,2.50
2023-10-01T04:53:01.093Z,2.80
2023-10-01T04:54:01.105Z,3.10
2023-10-01T04:55:12.996Z,2.90
2023-10-01T04:56:01.111Z,3.30
2023-10-01T04:57:01.048Z,2.50
2023-10-01T04:58:01.109Z,2.80
2023-10-01T04:59:01.287Z,2.90
2023-10-01T05:00:01.010Z,3.00
2023-10-01T05:01:01.041Z,2.80
2023-10-01T05:02:01.075Z,2.80
2023-10-01T05:03:01.004Z,2.70
2023-10-01T05:04:01.061Z,3.00
2023-10-01T05:05:01.004Z,3.00
2023-10-01T05:06:00.941Z,2.60
2023-10-01T05:07:01.060Z,2.80
2023-10-01T05:08:00.944Z,2.80
2023-10-01T05:09:01.072Z,2.50
2023-10-01T05:10:00.917Z,2.80
2023-10-01T05:11:00.896Z,2.70
2023-10-01T05:12:00.877Z,2.50
2023-10-01T05:13:06.974Z,2.70
2023-10-01T05:14:00.878Z,2.70
2023-10-01T05:15:01.214Z,2.50
2023-10-01T05:16:00.893Z,2.90
2023-10-01T05:17:00.922Z,2.80
2023-10-01T05:18:00.890Z,3.00
2023-10-01T05:19:01.007Z,2.70
2023-10-01T05:20:00.793Z,2.60
2023-10-01T05:21:00.783Z,2.60
2023-10-01T05:22:00.772Z,2.80
2023-10-01T05:23:00.808Z,2.20
2023-10-01T05:24:00.767Z,2.50
2023-10-01T05:25:00.772Z,2.50
2023-10-01T05:26:00.747Z,3.20
2023-10-01T05:27:00.718Z,2.80
2023-10-01T05:28:00.710Z,2.30
2023-10-01T05:29:01.029Z,2.40
2023-10-01T05:30:00.676Z,2.80
2023-10-01T05:31:00.691Z,2.30
2023-10-01T05:32:00.725Z,2.70
2023-10-01T05:33:00.657Z,2.20
2023-10-01T05:34:00.677Z,2.80
2023-10-01T05:35:00.646Z,2.30
2023-10-01T05:36:00.614Z,2.70
2023-10-01T05:37:00.619Z,2.50
2023-10-01T05:38:00.583Z,2.40
2023-10-01T05:39:00.851Z,2.40
2023-10-01T05:41:00.645Z,2.80
2023-10-01T05:42:00.560Z,2.70
2023-10-01T05:43:00.562Z,2.80
2023-10-01T05:44:00.528Z,2.30
2023-10-01T05:45:00.615Z,2.20
2023-10-01T05:46:00.571Z,2.70
2023-10-01T05:47:00.610Z,2.10
2023-10-01T05:48:00.532Z,2.50
2023-10-01T05:49:00.633Z,2.10
2023-10-01T05:50:00.482Z,2.20
2023-10-01T05:51:00.494Z,2.50
2023-10-01T05:52:00.544Z,2.40
2023-10-01T05:53:00.426Z,2.30
2023-10-01T05:54:00.411Z,2.10
2023-10-01T05:55:00.472Z,2.40
2023-10-01T05:56:00.394Z,2.10
2023-10-01T05:57:00.408Z,2.30
2023-10-01T05:58:00.379Z,2.20
2023-10-01T05:59:00.544Z,2.20
2023-10-01T06:00:00.367Z,2.10
2023-10-01T06:01:00.454Z,2.50
2023-10-01T06:02:00.443Z,2.20
2023-10-01T06:03:00.355Z,2.10
2023-10-01T06:04:00.366Z,2.30
2023-10-01T06:05:00.294Z,2.40
2023-10-01T06:06:00.510Z,2.40
2023-10-01T06:07:00.299Z,2.30
2023-10-01T06:08:00.268Z,2.30
2023-10-01T06:09:00.756Z,2.40
2023-10-01T06:10:00.387Z,2.10
2023-10-01T06:11:00.229Z,2.20
2023-10-01T06:12:00.233Z,1.70
2023-10-01T06:13:00.213Z,1.90
2023-10-01T06:14:00.209Z,2.40
2023-10-01T06:15:00.226Z,2.60
2023-10-01T06:16:00.273Z,1.90
2023-10-01T06:17:00.240Z,2.20
2023-10-01T06:18:00.224Z,2.30
2023-10-01T06:19:01.399Z,2.00
2023-10-01T06:20:00.227Z,2.10
2023-10-01T06:21:00.150Z,2.00
2023-10-01T06:22:00.119Z,1.80
2023-10-01T06:23:00.116Z,2.10
2023-10-01T06:24:00.311Z,1.70
2023-10-01T06:25:00.121Z,1.90
2023-10-01T06:26:00.053Z,2.30
2023-10-01T06:27:00.043Z,2.20
2023-10-01T06:28:00.108Z,1.80
2023-10-01T06:29:00.175Z,2.30
2023-10-01T06:30:00.045Z,2.20
2023-10-01T06:31:00.114Z,2.00
2023-10-01T06:32:00.078Z,2.00
2023-10-01T06:33:00.007Z,1.80
2023-10-01T06:33:59.977Z,2.10
2023-10-01T06:34:59.979Z,2.10
2023-10-01T06:35:59.949Z,2.10
2023-10-01T06:37:00.525Z,1.90
2023-10-01T06:37:59.933Z,2.50
2023-10-01T06:39:00.035Z,2.30
2023-10-01T06:39:59.932Z,2.20
2023-10-01T06:40:59.925Z,1.90
2023-10-01T06:41:59.872Z,2.00
2023-10-01T06:42:59.939Z,2.00
2023-10-01T06:43:59.852Z,2.10
2023-10-01T06:44:59.880Z,2.10
2023-10-01T06:45:59.856Z,2.20
2023-10-01T06:46:59.853Z,2.20
2023-10-01T06:47:59.856Z,2.30
2023-10-01T06:49:00.572Z,2.10
2023-10-01T06:49:59.785Z,1.90
2023-10-01T06:50:59.808Z,1.90
2023-10-01T06:51:59.792Z,2.00
2023-10-01T06:52:59.758Z,1.50
2023-10-01T06:53:59.762Z,2.00
2023-10-01T06:55:00.013Z,2.50
2023-10-01T06:55:59.718Z,1.80
2023-10-01T06:56:59.729Z,1.80
2023-10-01T06:57:59.709Z,2.30
2023-10-01T06:58:59.844Z,2.00
2023-10-01T06:59:59.674Z,1.80
2023-10-01T07:00:59.708Z,2.10
2023-10-01T07:01:59.704Z,1.90
2023-10-01T07:02:59.743Z,1.90
2023-10-01T07:03:59.741Z,1.70
2023-10-01T07:05:59.608Z,1.90
2023-10-01T07:06:59.619Z,1.50
2023-10-01T07:07:59.590Z,2.20
2023-10-01T07:08:59.770Z,2.00
2023-10-01T07:09:59.609Z,2.30
2023-10-01T07:10:59.573Z,2.10
2023-10-01T07:11:59.553Z,2.30
2023-10-01T07:13:00.379Z,2.10
2023-10-01T07:13:59.530Z,2.00
2023-10-01T07:14:59.504Z,1.90
2023-10-01T07:15:59.587Z,1.90
2023-10-01T07:16:59.529Z,1.60
2023-10-01T07:17:59.730Z,1.70
2023-10-01T07:18:59.751Z,1.90
2023-10-01T07:19:59.448Z,1.90
2023-10-01T07:20:59.459Z,1.90
2023-10-01T07:21:59.505Z,1.80
2023-10-01T07:22:59.434Z,1.90
2023-10-01T07:23:59.412Z,1.80
2023-10-01T07:24:59.439Z,1.90
2023-10-01T07:25:59.413Z,2.00
2023-10-01T07:26:59.382Z,2.00
2023-10-01T07:27:59.393Z,1.90
2023-10-01T07:29:00.180Z,1.90
2023-10-01T07:29:59.384Z,1.90
2023-10-01T07:30:59.384Z,1.90
2023-10-01T07:31:59.373Z,1.90
2023-10-01T07:32:59.375Z,2.10
2023-10-01T07:33:59.344Z,1.90
2023-10-01T07:34:59.334Z,2.10
2023-10-01T07:35:59.312Z,1.90
2023-10-01T07:36:59.296Z,1.80
2023-10-01T07:37:59.248Z,1.70
2023-10-01T07:38:59.452Z,2.20
2023-10-01T07:39:59.234Z,1.90
2023-10-01T07:40:59.554Z,1.90
2023-10-01T07:41:59.237Z,1.80
2023-10-01T07:42:59.203Z,1.90
2023-10-01T07:43:59.185Z,2.00
2023-10-01T07:44:59.960Z,2.40
2023-10-01T07:45:59.303Z,1.80
2023-10-01T07:46:59.215Z,2.30
2023-10-01T07:47:59.197Z,2.00
2023-10-01T07:48:59.414Z,2.40
2023-10-01T07:49:59.141Z,1.60
2023-10-01T07:50:59.101Z,2.20
2023-10-01T07:51:59.113Z,1.80
2023-10-01T07:52:59.083Z,2.00
2023-10-01T07:53:59.105Z,2.30
2023-10-01T07:54:59.089Z,2.10
2023-10-01T07:55:59.050Z,2.30
2023-10-01T07:56:59.039Z,2.20
2023-10-01T07:57:59.062Z,1.90
2023-10-01T07:58:59.449Z,1.70
2023-10-01T07:59:59.027Z,2.20
2023-10-01T08:00:59.079Z,2.20
2023-10-01T08:01:59.146Z,2.10
2023-10-01T08:02:59.025Z,2.30
2023-10-01T08:03:59.121Z,2.20
2023-10-01T08:04:59.268Z,2.00
2023-10-01T08:05:58.939Z,2.40
2023-10-01T08:06:59.028Z,2.00
2023-10-01T08:07:58.934Z,2.20
2023-10-01T08:08:59.526Z,1.90
2023-10-01T08:09:59.031Z,1.80
2023-10-01T08:10:58.889Z,2.50
2023-10-01T08:11:58.887Z,2.00
2023-10-01T08:12:58.915Z,2.50
2023-10-01T08:13:58.879Z,2.10
2023-10-01T08:14:58.834Z,2.10
2023-10-01T08:15:59.322Z,2.30
2023-10-01T08:16:59.058Z,2.30
2023-10-01T08:17:58.865Z,2.40
2023-10-01T08:18:59.367Z,2.00
2023-10-01T08:19:58.788Z,2.50
2023-10-01T08:20:58.766Z,2.10
2023-10-01T08:21:58.759Z,2.20
2023-10-01T08:22:58.749Z,2.20
2023-10-01T08:23:58.757Z,2.20
2023-10-01T08:24:58.724Z,2.60
2023-10-01T08:25:58.716Z,2.30
2023-10-01T08:26:58.703Z,2.20
2023-10-01T08:27:58.720Z,2.40
2023-10-01T08:28:59.429Z,2.50
2023-10-01T08:29:58.676Z,2.40
2023-10-01T08:30:58.721Z,2.70
2023-10-01T08:31:58.684Z,2.70
2023-10-01T08:32:58.662Z,2.90
2023-10-01T08:33:58.646Z,2.20
2023-10-01T08:34:58.612Z,2.30
2023-10-01T08:35:58.614Z,2.60
2023-10-01T08:36:58.639Z,2.30
2023-10-01T08:37:58.581Z,2.70
2023-10-01T08:38:58.755Z,2.70
2023-10-01T08:39:58.565Z,2.50
2023-10-01T08:40:58.580Z,2.90
2023-10-01T08:41:58.529Z,2.30
2023-10-01T08:42:58.548Z,2.30
2023-10-01T08:43:58.583Z,2.40
2023-10-01T08:44:58.493Z,2.40
2023-10-01T08:45:58.497Z,2.20
2023-10-01T08:46:58.570Z,2.40
2023-10-01T08:47:58.494Z,2.50
2023-10-01T08:48:58.668Z,2.40
2023-10-01T08:49:58.452Z,2.40
2023-10-01T08:50:58.429Z,2.30
2023-10-01T08:51:58.425Z,2.80
2023-10-01T08:52:58.435Z,2.90
2023-10-01T08:53:58.397Z,2.20
2023-10-01T08:54:58.411Z,2.10
2023-10-01T08:55:58.394Z,2.40
2023-10-01T08:56:58.364Z,2.70
2023-10-01T08:57:58.356Z,2.10
2023-10-01T08:58:58.512Z,2.50
2023-10-01T08:59:58.332Z,3.00
2023-10-01T09:00:58.513Z,2.40
2023-10-01T09:01:58.356Z,2.50
2023-10-01T09:02:58.357Z,2.00
2023-10-01T09:03:58.317Z,2.40
2023-10-01T09:04:58.276Z,2.60
2023-10-01T09:05:58.265Z,2.20
2023-10-01T09:06:58.253Z,2.50
2023-10-01T09:07:58.247Z,2.30
2023-10-01T09:08:58.412Z,2.30
2023-10-01T09:09:58.248Z,2.70
2023-10-01T09:10:58.326Z,2.20
2023-10-01T09:11:58.203Z,2.80
2023-10-01T09:12:58.184Z,2.50
2023-10-01T09:13:58.182Z,2.70
2023-10-01T09:14:58.212Z,2.40
2023-10-01T09:15:58.191Z,2.00
2023-10-01T09:16:58.228Z,2.50
2023-10-01T09:17:58.602Z,2.50
2023-10-01T09:18:58.442Z,2.70
2023-10-01T09:19:58.122Z,2.20
2023-10-01T09:20:58.128Z,2.60
2023-10-01T09:21:58.092Z,2.30
2023-10-01T09:22:58.075Z,2.40
2023-10-01T09:23:58.229Z,2.60
2023-10-01T09:24:58.091Z,2.30
2023-10-01T09:25:58.054Z,2.10
2023-10-01T09:26:58.040Z,3.00
2023-10-01T09:27:58.024Z,2.30
2023-10-01T09:28:58.225Z,2.60
2023-10-01T09:29:58.007Z,2.90
2023-10-01T09:30:58.011Z,2.70
2023-10-01T09:31:58.477Z,3.20
2023-10-01T09:32:58.526Z,2.90
2023-10-01T09:33:57.963Z,2.50
2023-10-01T09:34:57.951Z,2.80
2023-10-01T09:35:57.964Z,2.30
2023-10-01T09:36:57.928Z,2.70
2023-10-01T09:37:57.954Z,2.90
2023-10-01T09:38:58.066Z,2.60
2023-10-01T09:39:57.895Z,2.90
2023-10-01T09:40:57.889Z,2.10
2023-10-01T09:41:57.882Z,2.50
2023-10-01T09:42:57.859Z,2.50
2023-10-01T09:43:57.875Z,2.60
2023-10-01T09:44:57.834Z,2.80
2023-10-01T09:45:57.880Z,2.30
2023-10-01T09:46:57.902Z,2.10
2023-10-01T09:47:57.953Z,2.70
2023-10-01T09:48:58.308Z,2.90
2023-10-01T09:49:57.793Z,2.60
2023-10-01T09:50:57.783Z,3.10
2023-10-01T09:51:57.777Z,2.40
2023-10-01T09:52:57.875Z,2.30
2023-10-01T09:53:57.740Z,2.50
2023-10-01T09:54:57.723Z,3.00
2023-10-01T09:55:57.729Z,3.00
2023-10-01T09:56:57.705Z,2.40
2023-10-01T09:57:57.692Z,2.80
2023-10-01T09:58:57.980Z,2.30
2023-10-01T09:59:57.687Z,2.50
2023-10-01T10:00:57.663Z,2.90
2023-10-01T10:01:57.734Z,2.10
2023-10-01T10:02:57.689Z,3.00
2023-10-01T10:03:57.625Z,2.40
2023-10-01T10:04:57.674Z,3.00
2023-10-01T10:05:57.628Z,2.70
2023-10-01T10:06:57.594Z,2.60
2023-10-01T10:07:57.610Z,2.70
2023-10-01T10:08:57.687Z,2.90
2023-10-01T10:09:57.578Z,3.00
2023-10-01T10:10:57.547Z,3.00
2023-10-01T10:11:57.582Z,2.40
2023-10-01T10:13:01.522Z,2.90
2023-10-01T10:14:01.101Z,3.00
2023-10-01T10:14:58.545Z,2.50
2023-10-01T10:15:57.540Z,2.60
2023-10-01T10:16:57.640Z,2.50
2023-10-01T10:17:58.466Z,2.70
2023-10-01T10:18:58.539Z,2.60
2023-10-01T10:19:57.451Z,2.50
2023-10-01T10:20:57.496Z,2.80
2023-10-01T10:21:58.277Z,2.10
2023-10-01T10:22:57.423Z,2.80
2023-10-01T10:23:57.403Z,2.60
2023-10-01T10:24:57.985Z,2.70
2023-10-01T10:25:57.898Z,2.80
2023-10-01T10:26:57.536Z,2.60
2023-10-01T10:27:57.902Z,3.00
2023-10-01T10:28:58.923Z,2.70
2023-10-01T10:29:57.699Z,2.60
2023-10-01T10:30:57.333Z,3.00
2023-10-01T10:31:57.403Z,2.90
2023-10-01T10:32:57.372Z,2.40
2023-10-01T10:33:58.939Z,2.60
2023-10-01T10:34:57.288Z,2.50
2023-10-01T10:35:57.292Z,2.60
2023-10-01T10:36:57.352Z,2.80
2023-10-01T10:37:57.305Z,2.30
2023-10-01T10:38:57.331Z,2.50
2023-10-01T10:39:58.930Z,2.40
2023-10-01T10:40:57.225Z,2.80
2023-10-01T10:41:57.242Z,3.20
2023-10-01T10:42:57.243Z,2.50
2023-10-01T10:43:57.196Z,2.90
2023-10-01T10:45:03.003Z,2.50
2023-10-01T10:45:57.174Z,2.70
2023-10-01T10:46:57.208Z,2.60
2023-10-01T10:47:58.029Z,2.50
2023-10-01T10:48:57.136Z,2.90
2023-10-01T10:49:57.125Z,2.60
2023-10-01T10:51:12.319Z,2.80
2023-10-01T10:51:57.103Z,2.60
2023-10-01T10:52:57.090Z,2.50
2023-10-01T10:53:57.103Z,2.80
2023-10-01T10:54:57.064Z,2.40
2023-10-01T10:55:57.069Z,2.60
2023-10-01T10:56:57.051Z,2.80
2023-10-01T10:57:57.044Z,2.10
2023-10-01T10:58:57.058Z,2.60
2023-10-01T10:59:57.223Z,2.40
2023-10-01T11:00:58.081Z,3.00
2023-10-01T11:01:57.067Z,2.40
2023-10-01T11:02:57.046Z,2.40
2023-10-01T11:03:56.992Z,3.10
2023-10-01T11:04:57.015Z,2.50
2023-10-01T11:05:56.956Z,2.90
2023-10-01T11:06:56.940Z,2.60
2023-10-01T11:07:56.933Z,2.90
2023-10-01T11:08:56.914Z,2.70
2023-10-01T11:09:56.909Z,3.00
2023-10-01T11:10:56.911Z,2.40
2023-10-01T11:11:57.503Z,2.80
2023-10-01T11:12:56.871Z,2.60
2023-10-01T11:14:03.455Z,2.60
2023-10-01T11:14:56.854Z,2.60
2023-10-01T11:15:56.914Z,2.80
2023-10-01T11:16:56.905Z,2.50
2023-10-01T11:17:56.869Z,2.80
2023-10-01T11:18:56.822Z,2.80
2023-10-01T11:19:56.854Z,2.70
2023-10-01T11:20:56.795Z,2.70
2023-10-01T11:21:56.911Z,2.60
2023-10-01T11:22:56.968Z,2.60
2023-10-01T11:23:56.762Z,2.70
2023-10-01T11:24:56.744Z,2.60
2023-10-01T11:25:56.757Z,2.60
2023-10-01T11:26:56.725Z,3.30
2023-10-01T11:27:56.714Z,2.60
2023-10-01T11:28:56.713Z,2.60
2023-10-01T11:29:56.693Z,2.40
2023-10-01T11:30:56.697Z,2.60
2023-10-01T11:31:56.862Z,2.90
2023-10-01T11:32:56.847Z,2.80
2023-10-01T11:33:56.702Z,2.90
2023-10-01T11:34:56.833Z,2.50
2023-10-01T11:35:56.676Z,2.80
2023-10-01T11:36:56.618Z,2.80
2023-10-01T11:37:56.608Z,3.00
2023-10-01T11:38:56.599Z,3.00
2023-10-01T11:39:56.585Z,2.50
2023-10-01T11:40:56.612Z,2.50
2023-10-01T11:41:56.568Z,2.70
2023-10-01T11:42:56.550Z,2.60
2023-10-01T11:43:56.540Z,2.80
2023-10-01T11:44:56.528Z,2.60
2023-10-01T11:45:56.532Z,2.50
2023-10-01T11:46:56.548Z,2.50
2023-10-01T11:47:56.511Z,3.30
2023-10-01T11:48:56.522Z,2.60
2023-10-01T11:49:56.479Z,3.10
2023-10-01T11:50:56.473Z,2.40
2023-10-01T11:51:56.496Z,3.10
2023-10-01T11:52:56.445Z,3.00
2023-10-01T11:53:56.440Z,3.30
2023-10-01T11:54:56.460Z,2.70
2023-10-01T11:55:56.412Z,3.20
2023-10-01T11:56:56.409Z,2.70
2023-10-01T11:57:56.414Z,2.90
2023-10-01T11:58:56.397Z,2.20
2023-10-01T11:59:56.440Z,2.50
2023-10-01T12:00:56.398Z,2.80
2023-10-01T12:01:56.410Z,3.10
2023-10-01T12:02:56.382Z,2.70
2023-10-01T12:03:56.360Z,2.40
2023-10-01T12:04:56.358Z,2.50
2023-10-01T12:05:56.328Z,2.80
2023-10-01T12:06:56.330Z,3.10
2023-10-01T12:07:56.311Z,2.30
2023-10-01T12:08:56.283Z,2.90
2023-10-01T12:09:56.267Z,3.10
2023-10-01T12:10:56.279Z,3.20
2023-10-01T12:11:56.272Z,3.00
2023-10-01T12:12:56.253Z,3.20
2023-10-01T12:13:56.220Z,3.00
2023-10-01T12:14:56.354Z,2.70
2023-10-01T12:15:56.236Z,2.40
2023-10-01T12:16:56.274Z,2.30
2023-10-01T12:17:56.232Z,2.80
2023-10-01T12:18:56.205Z,2.50
2023-10-01T12:19:56.260Z,3.20
2023-10-01T12:20:56.188Z,3.10
2023-10-01T12:21:56.177Z,2.80
2023-10-01T12:22:56.163Z,3.10
2023-10-01T12:23:56.114Z,2.80
2023-10-01T12:24:56.116Z,2.40
2023-10-01T12:25:56.121Z,3.10
2023-10-01T12:26:56.077Z,2.80
2023-10-01T12:27:56.072Z,2.60
2023-10-01T12:28:56.059Z,3.10
2023-10-01T12:29:56.051Z,2.90
2023-10-01T12:30:56.056Z,3.10
2023-10-01T12:31:56.112Z,2.80
2023-10-01T12:32:56.119Z,2.80
2023-10-01T12:33:56.005Z,3.00
2023-10-01T12:34:56.024Z,3.30
2023-10-01T12:35:55.990Z,2.90
2023-10-01T12:36:55.975Z,3.00
2023-10-01T12:37:55.983Z,3.40
2023-10-01T12:38:55.977Z,2.70
2023-10-01T12:39:55.948Z,2.80
2023-10-01T12:40:56.257Z,3.10
2023-10-01T12:41:56.151Z,3.10
2023-10-01T12:42:55.917Z,2.90
2023-10-01T12:43:55.924Z,2.70
2023-10-01T12:44:55.909Z,2.60
2023-10-01T12:45:55.971Z,3.40
2023-10-01T12:46:55.945Z,3.00
2023-10-01T12:47:55.877Z,3.20
2023-10-01T12:48:55.844Z,3.00
2023-10-01T12:49:55.853Z,2.60
2023-10-01T12:50:57.490Z,3.00
2023-10-01T12:51:55.836Z,2.70
2023-10-01T12:52:55.831Z,3.10
2023-10-01T12:53:55.799Z,2.70
2023-10-01T12:54:55.911Z,3.00
2023-10-01T12:55:55.796Z,3.20
2023-10-01T12:56:55.764Z,2.80
2023-10-01T12:57:55.749Z,2.80
2023-10-01T12:58:55.749Z,3.00
2023-10-01T12:59:55.724Z,2.60
2023-10-01T13:00:55.762Z,3.00
2023-10-01T13:01:55.860Z,2.70
2023-10-01T13:02:55.830Z,3.00
2023-10-01T13:03:55.703Z,2.70
2023-10-01T13:04:55.702Z,2.90
2023-10-01T13:05:55.705Z,3.30
2023-10-01T13:06:55.678Z,3.00
2023-10-01T13:07:55.643Z,3.20
2023-10-01T13:08:55.653Z,3.00
2023-10-01T13:09:55.740Z,2.80
2023-10-01T13:10:55.695Z,3.30
2023-10-01T13:11:55.612Z,2.70
2023-10-01T13:12:55.596Z,3.40
2023-10-01T13:13:55.580Z,3.20
2023-10-01T13:14:55.633Z,3.40
2023-10-01T13:15:55.643Z,2.60
2023-10-01T13:16:55.647Z,2.90
2023-10-01T13:17:55.670Z,3.00
2023-10-01T13:18:55.636Z,3.20
2023-10-01T13:19:55.517Z,2.80
2023-10-01T13:20:55.555Z,2.80